Time;durP1;ratioP1;P1;durP2;ratioP2;P2;SDS_P1;SDS_P2;PMS_P1;PMS_P2;Temp;Humidity;BMP_temperature;BMP_pressure;BME280_temperature;BME280_humidity;BME280_pressure;Samples;Min_cycle;Max_cycle;Signal;HPM_P1;HPM_P2
2023/10/02 00:01:06;;;;;;;9.13;4.07;;;;;;;;;;5038650;28;20040;-88
2023/10/02 00:03:39;;;;;;;10.50;3.55;;;;;;;;;;5055600;23;20546;-87
2023/10/02 00:06:09;;;;;;;11.07;3.92;;;;;;;;;;5051051;28;20488;-86
2023/10/02 00:08:42;;;;;;;7.70;3.55;;;;;;;;;;5041487;28;20033;-86
2023/10/02 00:14:25;;;;;;;10.70;5.18;;;;;;;;;;5063695;28;20046;-86
2023/10/02 00:16:59;;;;;;;8.27;3.78;;;;;;;;;;5066318;28;20487;-86
2023/10/02 00:19:46;;;;;;;8.32;3.75;;;;;;;;;;5074010;28;20032;-86
2023/10/02 00:22:34;;;;;;;5.32;2.92;;;;;;;;;;5071495;28;20028;-86
2023/10/02 00:25:03;;;;;;;7.68;3.53;;;;;;;;;;5057600;28;20031;-88
2023/10/02 00:27:29;;;;;;;8.82;4.00;;;;;;;;;;5075616;28;20600;-88
2023/10/02 00:29:58;;;;;;;8.88;4.00;;;;;;;;;;5078799;28;20043;-87
2023/10/02 00:32:31;;;;;;;6.90;3.30;;;;;;;;;;5053207;28;20033;-86
2023/10/02 00:35:00;;;;;;;9.88;4.70;;;;;;;;;;5059772;28;20008;-89
2023/10/02 00:40:21;;;;;;;5.80;3.30;;;;;;;;;;5074510;28;20059;-87
2023/10/02 00:42:59;;;;;;;8.73;4.07;;;;;;;;;;5069980;28;20040;-87
2023/10/02 00:45:29;;;;;;;9.93;4.18;;;;;;;;;;5072014;28;20042;-88
2023/10/02 00:48:24;;;;;;;6.75;3.33;;;;;;;;;;5069213;28;20595;-87
2023/10/02 00:50:49;;;;;;;8.20;3.35;;;;;;;;;;5074339;28;20029;-87
2023/10/02 00:53:24;;;;;;;8.57;4.15;;;;;;;;;;5076967;28;20027;-86
2023/10/02 00:55:51;;;;;;;8.38;3.92;;;;;;;;;;5071457;28;20028;-86
2023/10/02 00:58:19;;;;;;;8.27;3.55;;;;;;;;;;5066506;28;20450;-86
2023/10/02 01:00:50;;;;;;;8.45;3.72;;;;;;;;;;5065751;28;20028;-86
2023/10/02 01:03:16;;;;;;;6.85;3.35;;;;;;;;;;5073687;28;20024;-86
2023/10/02 01:05:50;;;;;;;9.82;4.53;;;;;;;;;;5068716;28;20032;-87
2023/10/02 01:08:24;;;;;;;6.22;3.33;;;;;;;;;;5078130;28;20024;-86
2023/10/02 01:10:58;;;;;;;8.20;3.30;;;;;;;;;;5071702;28;20385;-87
2023/10/02 01:13:27;;;;;;;7.57;3.58;;;;;;;;;;5072199;28;20028;-86
2023/10/02 01:15:54;;;;;;;9.10;3.78;;;;;;;;;;5069981;28;20310;-87
2023/10/02 01:18:22;;;;;;;7.20;4.05;;;;;;;;;;5069539;28;20078;-87
2023/10/02 01:20:53;;;;;;;7.55;3.70;;;;;;;;;;5059352;28;20036;-87
2023/10/02 01:23:23;;;;;;;8.75;3.63;;;;;;;;;;5068242;28;20023;-86
2023/10/02 01:25:57;;;;;;;8.18;3.80;;;;;;;;;;5067340;28;20024;-86
2023/10/02 01:28:25;;;;;;;11.70;4.20;;;;;;;;;;5067233;28;20600;-86
2023/10/02 01:30:55;;;;;;;6.63;3.15;;;;;;;;;;5066671;28;20110;-86
2023/10/02 01:33:22;;;;;;;9.40;3.85;;;;;;;;;;5065260;28;20033;-86
2023/10/02 01:35:57;;;;;;;11.88;3.78;;;;;;;;;;5063356;28;20029;-86
2023/10/02 01:38:27;;;;;;;10.57;4.60;;;;;;;;;;5067770;28;20067;-86
2023/10/02 01:41:06;;;;;;;5.13;3.00;;;;;;;;;;5069937;28;20363;-86
2023/10/02 01:43:39;;;;;;;8.07;3.45;;;;;;;;;;5055522;28;20047;-86
2023/10/02 01:46:10;;;;;;;7.30;3.20;;;;;;;;;;5041434;28;20043;-86
2023/10/02 01:48:44;;;;;;;10.13;3.73;;;;;;;;;;5031097;28;20023;-86
2023/10/02 01:51:57;;;;;;;9.07;3.40;;;;;;;;;;5033564;28;20020;-86
2023/10/02 01:54:15;;;;;;;8.35;3.47;;;;;;;;;;5060941;28;20127;-86
2023/10/02 01:56:47;;;;;;;8.20;3.92;;;;;;;;;;5073041;28;20126;-85
2023/10/02 01:59:24;;;;;;;6.07;3.30;;;;;;;;;;5068704;28;20406;-86
2023/10/02 02:01:56;;;;;;;8.68;3.40;;;;;;;;;;5062479;28;20176;-86
2023/10/02 02:04:28;;;;;;;9.38;3.80;;;;;;;;;;5074238;28;20036;-86
2023/10/02 02:06:56;;;;;;;9.02;3.75;;;;;;;;;;5073753;28;20085;-86
2023/10/02 02:09:35;;;;;;;7.32;3.42;;;;;;;;;;5052145;28;20057;-86
2023/10/02 02:12:06;;;;;;;6.65;2.85;;;;;;;;;;5068338;28;20494;-86
2023/10/02 02:14:49;;;;;;;6.63;3.45;;;;;;;;;;5076612;28;20032;-85
2023/10/02 02:17:19;;;;;;;7.70;4.28;;;;;;;;;;5070454;28;20031;-86
2023/10/02 02:19:49;;;;;;;7.20;3.15;;;;;;;;;;5073579;28;20025;-86
2023/10/02 02:22:26;;;;;;;8.98;3.50;;;;;;;;;;5070585;28;20017;-86
2023/10/02 02:24:53;;;;;;;8.88;3.47;;;;;;;;;;5056144;28;20043;-86
2023/10/02 02:27:19;;;;;;;7.93;4.03;;;;;;;;;;5052753;28;20507;-86
2023/10/02 02:29:49;;;;;;;7.85;2.97;;;;;;;;;;5071947;28;20410;-86
2023/10/02 02:32:19;;;;;;;7.22;3.42;;;;;;;;;;5071815;28;20031;-86
2023/10/02 02:35:00;;;;;;;8.43;3.97;;;;;;;;;;5070024;28;20235;-85
2023/10/02 02:37:32;;;;;;;7.00;3.40;;;;;;;;;;5051572;28;20419;-86
2023/10/02 02:40:21;;;;;;;9.65;3.92;;;;;;;;;;5071290;28;20058;-85
2023/10/02 02:42:46;;;;;;;8.68;3.35;;;;;;;;;;5073298;28;20039;-86
2023/10/02 02:45:31;;;;;;;8.27;3.95;;;;;;;;;;5064575;28;20032;-86
2023/10/02 02:48:10;;;;;;;10.20;3.75;;;;;;;;;;5069127;28;20386;-86
2023/10/02 02:50:41;;;;;;;5.57;2.80;;;;;;;;;;5065708;28;20028;-86
2023/10/02 02:53:17;;;;;;;8.75;3.30;;;;;;;;;;5052298;28;20035;-86
2023/10/02 02:56:10;;;;;;;7.82;3.35;;;;;;;;;;5056963;28;20481;-86
2023/10/02 02:58:38;;;;;;;7.35;2.67;;;;;;;;;;5074185;28;20028;-86
2023/10/02 03:01:11;;;;;;;6.82;3.30;;;;;;;;;;5066097;28;20024;-86
2023/10/02 03:03:41;;;;;;;9.15;3.35;;;;;;;;;;5068587;28;20043;-85
2023/10/02 03:06:17;;;;;;;11.13;3.67;;;;;;;;;;5050447;28;20084;-86
2023/10/02 03:08:46;;;;;;;8.35;3.58;;;;;;;;;;5053707;28;20564;-86
2023/10/02 03:11:19;;;;;;;7.70;3.22;;;;;;;;;;5069148;28;20031;-86
2023/10/02 03:13:45;;;;;;;8.98;3.72;;;;;;;;;;5071036;28;20020;-87
2023/10/02 03:16:28;;;;;;;7.53;3.97;;;;;;;;;;5068367;28;20471;-86
2023/10/02 03:18:54;;;;;;;6.95;3.25;;;;;;;;;;5066186;28;20107;-86
2023/10/02 03:21:24;;;;;;;8.40;3.75;;;;;;;;;;5068450;28;20058;-86
2023/10/02 03:23:53;;;;;;;9.27;4.15;;;;;;;;;;5072545;28;20454;-86
2023/10/02 03:29:06;;;;;;;7.32;3.40;;;;;;;;;;5072483;28;20107;-86
2023/10/02 03:31:37;;;;;;;7.63;3.78;;;;;;;;;;5052960;28;20093;-86
2023/10/02 03:34:27;;;;;;;5.85;3.13;;;;;;;;;;5053900;28;20029;-86
2023/10/02 03:36:59;;;;;;;7.80;3.80;;;;;;;;;;5068084;28;20031;-86
2023/10/02 03:42:13;;;;;;;8.38;3.90;;;;;;;;;;5033835;28;20420;-86
2023/10/02 03:44:45;;;;;;;6.53;2.97;;;;;;;;;;5069671;28;20099;-86
2023/10/02 03:47:12;;;;;;;10.80;3.92;;;;;;;;;;5052358;28;20030;-86
2023/10/02 03:49:45;;;;;;;7.75;3.85;;;;;;;;;;5024288;28;20355;-86
2023/10/02 03:52:16;;;;;;;8.02;3.42;;;;;;;;;;4988100;28;20119;-86
2023/10/02 03:54:43;;;;;;;8.10;3.88;;;;;;;;;;5073046;28;20004;-85
2023/10/02 03:59:54;;;;;;;8.15;4.13;;;;;;;;;;5092894;28;20043;-86
2023/10/02 04:02:25;;;;;;;8.55;3.38;;;;;;;;;;5091388;28;20017;-86
2023/10/02 04:04:51;;;;;;;6.88;3.53;;;;;;;;;;5073816;28;20106;-86
2023/10/02 04:07:17;;;;;;;7.18;3.72;;;;;;;;;;5074672;28;20067;-87
2023/10/02 04:09:50;;;;;;;6.75;3.53;;;;;;;;;;5058646;28;20014;-86
2023/10/02 04:12:19;;;;;;;7.72;3.55;;;;;;;;;;5073393;28;20155;-86
2023/10/02 04:14:54;;;;;;;6.43;3.40;;;;;;;;;;5072370;28;20026;-86
2023/10/02 04:19:49;;;;;;;6.78;3.45;;;;;;;;;;5072124;28;20096;-86
2023/10/02 04:22:22;;;;;;;6.65;3.03;;;;;;;;;;5066824;28;20036;-86
2023/10/02 04:24:58;;;;;;;8.27;3.72;;;;;;;;;;5065609;28;20035;-86
2023/10/02 04:32:39;;;;;;;7.00;3.20;;;;;;;;;;5068990;28;20024;-86
2023/10/02 04:38:07;;;;;;;4.13;3.30;;;;;;;;;;5064410;28;20117;-86
2023/10/02 04:41:19;;;;;;;7.32;3.63;;;;;;;;;;5068373;28;20077;-86
2023/10/02 04:43:28;;;;;;;6.63;3.67;;;;;;;;;;5046881;28;20048;-86
2023/10/02 04:46:02;;;;;;;7.85;3.33;;;;;;;;;;5072438;28;20074;-86
2023/10/02 04:48:39;;;;;;;7.45;3.50;;;;;;;;;;5066953;28;20371;-85
2023/10/02 04:51:08;;;;;;;9.15;4.03;;;;;;;;;;5065060;28;20245;-86
2023/10/02 04:53:35;;;;;;;6.20;4.03;;;;;;;;;;5077236;28;20000;-86
2023/10/02 04:58:50;;;;;;;7.65;4.00;;;;;;;;;;5070551;28;20025;-86
2023/10/02 05:01:25;;;;;;;6.20;3.08;;;;;;;;;;5068750;28;20566;-86
2023/10/02 05:03:55;;;;;;;7.80;3.85;;;;;;;;;;5046815;28;20106;-86
2023/10/02 05:06:44;;;;;;;9.40;3.30;;;;;;;;;;5040778;28;20037;-87
2023/10/02 05:09:25;;;;;;;5.30;2.55;;;;;;;;;;5056130;28;20025;-86
2023/10/02 05:11:57;;;;;;;8.48;3.47;;;;;;;;;;5059729;28;20046;-86
2023/10/02 05:14:26;;;;;;;7.03;3.45;;;;;;;;;;5067667;28;20039;-87
2023/10/02 05:17:38;;;;;;;7.20;3.53;;;;;;;;;;5045913;28;20032;-86
2023/10/02 05:19:57;;;;;;;7.18;4.03;;;;;;;;;;5066310;28;20028;-86
2023/10/02 05:22:27;;;;;;;7.40;3.42;;;;;;;;;;5026605;28;20038;-87
2023/10/02 05:25:18;;;;;;;7.55;3.90;;;;;;;;;;5056918;28;20046;-86
2023/10/02 05:27:40;;;;;;;8.25;4.20;;;;;;;;;;5069122;28;20048;-86
2023/10/02 05:30:17;;;;;;;7.90;3.33;;;;;;;;;;5047282;28;20041;-86
2023/10/02 05:32:43;;;;;;;11.45;3.63;;;;;;;;;;5027115;28;20075;-86
2023/10/02 05:37:41;;;;;;;9.10;3.63;;;;;;;;;;5067597;28;20499;-86
2023/10/02 05:42:53;;;;;;;7.70;3.63;;;;;;;;;;5052352;28;20029;-86
2023/10/02 05:48:20;;;;;;;9.48;4.10;;;;;;;;;;5064330;28;20391;-86
2023/10/02 05:50:48;;;;;;;6.50;3.38;;;;;;;;;;5065151;28;20086;-86
2023/10/02 05:53:15;;;;;;;5.38;3.47;;;;;;;;;;5064582;28;20028;-86
2023/10/02 05:58:31;;;;;;;8.57;3.67;;;;;;;;;;5067324;28;20082;-86
2023/10/02 06:01:03;;;;;;;8.27;3.73;;;;;;;;;;5065990;28;20117;-86
2023/10/02 06:03:37;;;;;;;9.05;4.43;;;;;;;;;;5049898;28;20768;-88
2023/10/02 06:06:21;;;;;;;8.73;3.65;;;;;;;;;;5065624;28;20040;-88
2023/10/02 06:08:48;;;;;;;10.00;3.90;;;;;;;;;;5050642;28;20020;-86
2023/10/02 06:11:34;;;;;;;9.43;4.43;;;;;;;;;;5067608;28;20031;-87
2023/10/02 06:14:10;;;;;;;7.22;3.50;;;;;;;;;;5067221;28;20078;-87
2023/10/02 06:16:47;;;;;;;8.18;4.18;;;;;;;;;;5065325;28;20402;-86
2023/10/02 06:19:14;;;;;;;6.78;4.10;;;;;;;;;;5045700;28;20046;-87
2023/10/02 06:21:47;;;;;;;7.88;4.32;;;;;;;;;;5058053;28;20019;-86
2023/10/02 06:24:13;;;;;;;10.07;4.97;;;;;;;;;;5064515;28;20040;-86
2023/10/02 06:29:33;;;;;;;6.43;3.90;;;;;;;;;;5066844;28;20170;-86
2023/10/02 06:31:59;;;;;;;8.90;4.13;;;;;;;;;;5072242;28;20028;-87
2023/10/02 06:34:36;;;;;;;11.80;4.70;;;;;;;;;;5001948;28;20027;-87
2023/10/02 06:37:07;;;;;;;8.98;4.20;;;;;;;;;;5064777;28;20032;-87
2023/10/02 06:39:35;;;;;;;10.65;4.43;;;;;;;;;;5069628;28;20025;-86
2023/10/02 06:42:05;;;;;;;10.38;4.50;;;;;;;;;;5067281;28;20029;-86
2023/10/02 06:45:15;;;;;;;13.35;5.05;;;;;;;;;;5069694;28;20024;-87
2023/10/02 06:47:24;;;;;;;8.23;3.80;;;;;;;;;;5048453;28;20106;-87
2023/10/02 06:50:02;;;;;;;8.68;4.47;;;;;;;;;;5066826;28;20489;-84
2023/10/02 06:52:32;;;;;;;8.20;4.38;;;;;;;;;;5071566;28;20052;-85
2023/10/02 06:55:00;;;;;;;11.25;4.85;;;;;;;;;;5071539;28;20491;-86
2023/10/02 06:57:28;;;;;;;11.85;4.03;;;;;;;;;;5080660;28;20694;-86
2023/10/02 06:59:54;;;;;;;12.80;4.63;;;;;;;;;;5077988;28;20437;-85
2023/10/02 07:02:27;;;;;;;11.23;5.20;;;;;;;;;;5074901;28;20036;-85
2023/10/02 07:04:55;;;;;;;11.32;4.25;;;;;;;;;;5085036;28;20043;-85
2023/10/02 07:07:25;;;;;;;10.68;4.90;;;;;;;;;;5076394;28;20111;-85
2023/10/02 07:10:07;;;;;;;12.23;4.83;;;;;;;;;;5075517;28;20028;-85
2023/10/02 07:12:43;;;;;;;13.57;4.82;;;;;;;;;;5069633;28;20020;-86
2023/10/02 07:15:22;;;;;;;11.50;4.90;;;;;;;;;;5049642;28;20031;-85
2023/10/02 07:17:48;;;;;;;10.95;4.65;;;;;;;;;;5059137;28;20034;-85
2023/10/02 07:20:20;;;;;;;11.65;4.72;;;;;;;;;;5070267;28;20025;-85
2023/10/02 07:22:50;;;;;;;10.30;4.60;;;;;;;;;;5071004;28;21010;-85
2023/10/02 07:25:20;;;;;;;12.50;5.05;;;;;;;;;;5051924;28;20434;-85
2023/10/02 07:27:48;;;;;;;10.52;4.55;;;;;;;;;;5052770;28;20561;-85
2023/10/02 07:30:24;;;;;;;11.48;4.88;;;;;;;;;;5067658;28;20395;-85
2023/10/02 07:33:02;;;;;;;8.73;4.35;;;;;;;;;;5074953;28;20542;-86
2023/10/02 07:35:52;;;;;;;9.90;4.10;;;;;;;;;;5071857;28;20031;-86
2023/10/02 07:38:34;;;;;;;11.80;5.10;;;;;;;;;;5069907;28;20032;-86
2023/10/02 07:41:08;;;;;;;11.05;4.70;;;;;;;;;;5068141;28;20028;-88
2023/10/02 07:43:35;;;;;;;10.25;5.22;;;;;;;;;;5067842;28;20029;-87
2023/10/02 07:46:18;;;;;;;14.80;4.97;;;;;;;;;;5070456;28;20338;-88
2023/10/02 07:49:04;;;;;;;9.82;4.57;;;;;;;;;;4988800;28;20482;-86
2023/10/02 07:51:37;;;;;;;12.75;6.07;;;;;;;;;;5067856;28;20040;-86
2023/10/02 07:54:06;;;;;;;12.38;5.05;;;;;;;;;;5065993;28;20027;-86
2023/10/02 07:56:33;;;;;;;10.23;4.70;;;;;;;;;;5067884;28;20556;-86
2023/10/02 07:59:02;;;;;;;9.95;4.82;;;;;;;;;;5067885;28;20111;-87
2023/10/02 08:01:28;;;;;;;8.65;4.03;;;;;;;;;;5020305;28;20022;-86
2023/10/02 08:03:55;;;;;;;10.00;4.45;;;;;;;;;;5060367;28;20066;-86
2023/10/02 08:06:23;;;;;;;13.13;5.20;;;;;;;;;;5068929;28;20039;-87
2023/10/02 08:11:34;;;;;;;12.15;4.78;;;;;;;;;;5070388;28;20022;-86
2023/10/02 08:14:01;;;;;;;14.00;5.47;;;;;;;;;;5066878;28;20025;-88
2023/10/02 08:16:27;;;;;;;12.18;4.90;;;;;;;;;;5066540;28;20028;-87
2023/10/02 08:18:59;;;;;;;13.73;4.78;;;;;;;;;;5068002;28;20024;-86
2023/10/02 08:24:11;;;;;;;11.60;4.85;;;;;;;;;;5072185;28;20093;-86
2023/10/02 08:26:40;;;;;;;8.90;4.90;;;;;;;;;;5065278;28;20276;-86
2023/10/02 08:29:26;;;;;;;14.10;5.22;;;;;;;;;;5054374;28;20069;-86
2023/10/02 08:31:55;;;;;;;10.88;5.13;;;;;;;;;;5038191;28;20137;-86
2023/10/02 08:34:24;;;;;;;9.57;4.55;;;;;;;;;;5067084;28;20487;-86
2023/10/02 08:37:05;;;;;;;11.30;4.75;;;;;;;;;;5068429;28;20041;-86
2023/10/02 08:39:43;;;;;;;10.27;4.90;;;;;;;;;;5071250;28;20502;-87
2023/10/02 08:42:10;;;;;;;8.82;4.53;;;;;;;;;;5050476;28;20092;-86
2023/10/02 08:44:38;;;;;;;9.35;4.57;;;;;;;;;;5051640;28;20428;-87
2023/10/02 08:47:24;;;;;;;12.15;5.22;;;;;;;;;;5068807;28;20479;-85
2023/10/02 08:50:04;;;;;;;11.10;5.05;;;;;;;;;;4988626;28;20385;-86
2023/10/02 08:52:38;;;;;;;11.07;5.47;;;;;;;;;;5069406;28;20028;-86
2023/10/02 08:56:21;;;;;;;11.90;5.43;;;;;;;;;;5069496;28;20028;-86
2023/10/02 08:58:15;;;;;;;10.05;4.22;;;;;;;;;;5043354;28;20495;-86
2023/10/02 09:04:21;;;;;;;15.55;5.18;;;;;;;;;;5073299;28;20062;-87
2023/10/02 09:06:41;;;;;;;12.55;5.55;;;;;;;;;;5069790;28;20036;-86
2023/10/02 09:09:23;;;;;;;13.48;5.35;;;;;;;;;;5052299;28;20057;-86
2023/10/02 09:11:52;;;;;;;10.30;4.72;;;;;;;;;;5058749;28;20044;-86
2023/10/02 09:19:53;;;;;;;11.13;5.47;;;;;;;;;;5068605;28;20157;-86
2023/10/02 09:22:23;;;;;;;12.57;5.68;;;;;;;;;;5065011;28;20051;-85
2023/10/02 09:25:23;;;;;;;13.95;5.35;;;;;;;;;;5049743;28;20088;-86
2023/10/02 09:28:13;;;;;;;12.80;5.40;;;;;;;;;;5052032;28;20020;-85
2023/10/02 09:30:41;;;;;;;13.02;4.80;;;;;;;;;;5070183;28;20035;-85
2023/10/02 09:33:08;;;;;;;12.10;5.72;;;;;;;;;;5029190;28;20047;-86
2023/10/02 09:35:43;;;;;;;12.82;4.93;;;;;;;;;;5071583;28;20051;-86
2023/10/02 09:38:16;;;;;;;11.32;5.50;;;;;;;;;;5064880;28;20036;-86
2023/10/02 09:43:35;;;;;;;10.60;4.60;;;;;;;;;;5069676;28;20093;-88
2023/10/02 09:46:06;;;;;;;11.57;5.32;;;;;;;;;;5068765;28;20028;-86
2023/10/02 09:48:46;;;;;;;10.80;5.20;;;;;;;;;;5069432;28;20115;-87
2023/10/02 09:51:30;;;;;;;11.70;4.47;;;;;;;;;;5066102;28;20490;-87
2023/10/02 09:54:09;;;;;;;10.07;4.90;;;;;;;;;;5053419;28;20056;-87
2023/10/02 09:56:54;;;;;;;11.27;4.85;;;;;;;;;;5053923;28;20025;-89
2023/10/02 09:59:21;;;;;;;12.15;5.10;;;;;;;;;;5047011;28;20047;-87
2023/10/02 10:02:18;;;;;;;10.82;5.25;;;;;;;;;;5052544;28;20035;-86
2023/10/02 10:07:46;;;;;;;9.88;4.35;;;;;;;;;;5068940;28;20040;-87
2023/10/02 10:10:28;;;;;;;15.68;5.05;;;;;;;;;;5051801;28;20027;-88
2023/10/02 10:12:59;;;;;;;14.15;4.72;;;;;;;;;;5063481;28;20135;-88
2023/10/02 10:15:29;;;;;;;7.47;4.18;;;;;;;;;;5072096;28;20124;-87
2023/10/02 10:17:56;;;;;;;12.85;5.43;;;;;;;;;;5076249;28;20036;-87
2023/10/02 10:20:22;;;;;;;10.45;4.78;;;;;;;;;;5075823;28;20042;-88
2023/10/02 10:22:55;;;;;;;10.35;4.40;;;;;;;;;;5078297;28;20032;-87
2023/10/02 10:27:54;;;;;;;10.40;4.80;;;;;;;;;;5075295;28;20032;-89
2023/10/02 10:30:28;;;;;;;13.50;5.63;;;;;;;;;;5056575;28;20110;-87
2023/10/02 10:35:37;;;;;;;14.48;4.90;;;;;;;;;;5087299;28;20028;-88
2023/10/02 10:38:28;;;;;;;14.27;5.07;;;;;;;;;;5071547;28;20044;-88
2023/10/02 10:41:00;;;;;;;14.60;5.00;;;;;;;;;;5070923;28;20425;-88
2023/10/02 10:43:43;;;;;;;12.43;5.63;;;;;;;;;;5056805;28;20048;-88
2023/10/02 10:46:37;;;;;;;10.68;5.05;;;;;;;;;;5050543;28;20026;-88
2023/10/02 10:49:15;;;;;;;13.63;5.85;;;;;;;;;;5068014;28;20024;-88
2023/10/02 10:51:42;;;;;;;14.80;5.93;;;;;;;;;;5071512;28;20029;-87
2023/10/02 10:54:25;;;;;;;10.65;5.20;;;;;;;;;;5080722;28;20096;-87
2023/10/02 11:00:23;;;;;;;13.85;5.25;;;;;;;;;;5076810;28;20281;-87
2023/10/02 11:02:54;;;;;;;11.90;5.28;;;;;;;;;;5078496;28;20030;-87
2023/10/02 11:05:19;;;;;;;;;;;;;;;;;;5076743;28;20060;-87
2023/10/02 11:07:47;;;;;;;12.80;5.82;;;;;;;;;;5089358;28;19935;-89
2023/10/02 11:10:18;;;;;;;15.68;6.30;;;;;;;;;;5093668;28;20066;-90
2023/10/02 11:12:59;;;;;;;17.50;6.05;;;;;;;;;;5082133;28;20183;-88
2023/10/02 11:18:23;;;;;;;14.30;6.00;;;;;;;;;;5073491;28;20031;-87
2023/10/02 11:20:54;;;;;;;20.00;6.72;;;;;;;;;;5071181;28;20036;-88
2023/10/02 11:23:40;;;;;;;14.50;6.20;;;;;;;;;;5070296;28;20123;-86
2023/10/02 11:26:21;;;;;;;14.00;6.20;;;;;;;;;;5080012;28;20055;-88
2023/10/02 11:28:50;;;;;;;14.35;6.32;;;;;;;;;;5058762;28;20063;-87
2023/10/02 11:31:29;;;;;;;14.23;6.35;;;;;;;;;;5072609;28;20036;-88
2023/10/02 11:34:05;;;;;;;18.77;6.60;;;;;;;;;;5068600;28;20457;-87
2023/10/02 11:36:37;;;;;;;18.63;7.10;;;;;;;;;;5077367;28;20119;-88
2023/10/02 11:39:09;;;;;;;23.65;8.25;;;;;;;;;;5070531;28;20391;-87
2023/10/02 11:41:36;;;;;;;23.27;8.45;;;;;;;;;;5070869;28;20028;-88
2023/10/02 11:44:03;;;;;;;18.67;7.10;;;;;;;;;;5077355;28;20450;-88
2023/10/02 11:46:29;;;;;;;18.40;7.55;;;;;;;;;;5072130;28;20039;-88
2023/10/02 11:48:54;;;;;;;24.35;8.70;;;;;;;;;;5072248;28;20084;-88
2023/10/02 11:51:20;;;;;;;26.67;7.97;;;;;;;;;;5073364;28;20037;-88
2023/10/02 11:53:45;;;;;;;17.90;7.00;;;;;;;;;;5093869;28;20021;-88
2023/10/02 11:56:11;;;;;;;18.10;7.85;;;;;;;;;;5078685;28;20035;-87
2023/10/02 11:58:36;;;;;;;19.42;7.60;;;;;;;;;;5074567;28;20025;-87
2023/10/02 12:01:08;;;;;;;22.00;8.15;;;;;;;;;;5071185;28;20036;-88
2023/10/02 12:03:36;;;;;;;17.42;7.88;;;;;;;;;;5068095;28;20033;-86
2023/10/02 12:06:12;;;;;;;18.45;8.02;;;;;;;;;;5069230;28;20404;-87
2023/10/02 12:08:40;;;;;;;17.20;6.82;;;;;;;;;;5069800;28;20020;-88
2023/10/02 12:11:08;;;;;;;21.92;7.28;;;;;;;;;;5068087;28;20032;-88
2023/10/02 12:13:36;;;;;;;17.95;6.47;;;;;;;;;;5069696;28;20032;-88
2023/10/02 12:16:02;;;;;;;23.67;7.65;;;;;;;;;;5068317;28;20032;-88
2023/10/02 12:18:33;;;;;;;16.92;6.68;;;;;;;;;;5067776;28;20399;-89
2023/10/02 12:20:59;;;;;;;19.38;7.10;;;;;;;;;;5068291;28;20024;-88
2023/10/02 12:23:28;;;;;;;15.82;6.30;;;;;;;;;;5069359;28;20036;-87
2023/10/02 12:25:55;;;;;;;18.63;7.05;;;;;;;;;;5069209;28;20392;-87
2023/10/02 12:28:21;;;;;;;16.17;6.15;;;;;;;;;;5067632;28;20101;-88
2023/10/02 12:30:50;;;;;;;17.02;7.03;;;;;;;;;;5073487;28;20121;-88
2023/10/02 12:33:16;;;;;;;16.58;7.00;;;;;;;;;;5055422;28;20053;-87
2023/10/02 12:35:41;;;;;;;19.23;7.55;;;;;;;;;;5076086;28;20048;-88
2023/10/02 12:38:07;;;;;;;19.27;7.85;;;;;;;;;;5069339;28;20069;-88
2023/10/02 12:40:33;;;;;;;15.93;7.28;;;;;;;;;;5069400;28;20020;-88
2023/10/02 12:43:03;;;;;;;18.02;7.07;;;;;;;;;;5067924;28;20074;-88
2023/10/02 12:45:35;;;;;;;18.58;6.97;;;;;;;;;;5067616;28;20024;-88
2023/10/02 12:48:06;;;;;;;;;;;;;;;;;;4999005;28;20481;-90
2023/10/02 12:50:39;;;;;;;;;;;;;;;;;;5051817;28;20196;-89
2023/10/02 12:53:05;;;;;;;16.48;6.90;;;;;;;;;;4989388;28;20379;-88
2023/10/02 12:55:34;;;;;;;23.75;8.73;;;;;;;;;;5062222;28;20058;-89
2023/10/02 12:58:01;;;;;;;19.05;8.00;;;;;;;;;;5067927;28;20065;-87
2023/10/02 13:00:27;;;;;;;23.55;8.02;;;;;;;;;;5069125;28;20028;-87
2023/10/02 13:02:53;;;;;;;17.83;7.22;;;;;;;;;;5069023;28;20032;-87
2023/10/02 13:05:19;;;;;;;18.55;7.45;;;;;;;;;;5067256;28;20058;-87
2023/10/02 13:07:47;;;;;;;20.77;7.25;;;;;;;;;;5071414;28;20024;-87
2023/10/02 13:10:14;;;;;;;19.77;7.63;;;;;;;;;;5072359;28;20108;-87
2023/10/02 13:12:41;;;;;;;17.75;7.55;;;;;;;;;;5071873;28;20032;-87
2023/10/02 13:15:07;;;;;;;19.77;7.57;;;;;;;;;;5041092;28;20040;-89
2023/10/02 13:17:34;;;;;;;19.65;7.80;;;;;;;;;;5064875;28;20038;-87
2023/10/02 13:20:00;;;;;;;21.00;8.23;;;;;;;;;;5065330;28;20024;-87
2023/10/02 13:22:25;;;;;;;21.30;7.93;;;;;;;;;;5062034;28;20040;-87
2023/10/02 13:24:50;;;;;;;18.02;7.80;;;;;;;;;;5071232;28;20029;-87
2023/10/02 13:27:17;;;;;;;22.70;7.40;;;;;;;;;;5077263;28;20028;-87
2023/10/02 13:29:49;;;;;;;21.02;8.07;;;;;;;;;;5070975;28;20024;-89
2023/10/02 13:32:15;;;;;;;22.95;8.15;;;;;;;;;;5015713;28;20029;-88
2023/10/02 13:34:41;;;;;;;18.42;7.53;;;;;;;;;;5038973;28;20065;-89
2023/10/02 13:37:06;;;;;;;17.67;7.80;;;;;;;;;;5079175;28;20052;-87
2023/10/02 13:39:38;;;;;;;19.45;7.90;;;;;;;;;;5073643;28;20036;-89
2023/10/02 13:42:04;;;;;;;20.52;7.88;;;;;;;;;;5068573;28;20054;-89
2023/10/02 13:44:30;;;;;;;21.88;7.95;;;;;;;;;;5073554;28;20040;-89
2023/10/02 13:47:00;;;;;;;18.95;7.22;;;;;;;;;;5072355;28;20113;-89
2023/10/02 13:49:27;;;;;;;16.42;6.57;;;;;;;;;;5082734;28;20077;-88
2023/10/02 13:51:52;;;;;;;23.95;7.95;;;;;;;;;;5069164;28;20052;-88
2023/10/02 13:54:18;;;;;;;19.02;6.80;;;;;;;;;;5055038;28;20070;-88
2023/10/02 13:56:45;;;;;;;22.52;7.60;;;;;;;;;;5060978;28;20045;-88
2023/10/02 13:59:11;;;;;;;16.35;7.05;;;;;;;;;;5094581;28;20040;-88
2023/10/02 14:01:36;;;;;;;21.25;6.97;;;;;;;;;;5082141;28;20071;-89
2023/10/02 14:04:06;;;;;;;19.90;7.97;;;;;;;;;;5059719;28;20030;-90
2023/10/02 14:06:32;;;;;;;20.55;8.13;;;;;;;;;;5036384;28;20051;-91
2023/10/02 14:08:57;;;;;;;21.25;7.15;;;;;;;;;;5063138;28;20065;-89
2023/10/02 14:11:25;;;;;;;22.58;8.52;;;;;;;;;;5054709;28;20074;-88
2023/10/02 14:13:53;;;;;;;19.23;7.82;;;;;;;;;;5064314;28;20056;-88
2023/10/02 14:16:19;;;;;;;18.65;7.57;;;;;;;;;;5055508;28;20043;-88
2023/10/02 14:18:53;;;;;;;18.20;7.43;;;;;;;;;;5059840;28;20031;-88
2023/10/02 14:21:23;;;;;;;20.67;7.15;;;;;;;;;;5074385;28;20029;-88
2023/10/02 14:23:54;;;;;;;17.35;7.32;;;;;;;;;;5071883;28;20422;-88
2023/10/02 14:26:20;;;;;;;20.45;7.10;;;;;;;;;;5072743;28;20433;-88
2023/10/02 14:28:46;;;;;;;21.27;7.70;;;;;;;;;;5075024;28;20020;-88
2023/10/02 14:31:12;;;;;;;20.17;7.63;;;;;;;;;;5030895;28;20422;-88
2023/10/02 14:33:40;;;;;;;17.10;6.82;;;;;;;;;;5071615;28;20028;-88
2023/10/02 14:36:10;;;;;;;19.75;7.88;;;;;;;;;;5031637;28;20380;-88
2023/10/02 14:38:37;;;;;;;21.40;7.72;;;;;;;;;;5080528;28;20021;-88
2023/10/02 14:41:03;;;;;;;18.52;7.07;;;;;;;;;;5070016;28;20077;-88
2023/10/02 14:43:29;;;;;;;14.95;6.68;;;;;;;;;;5072891;28;20020;-89
2023/10/02 14:45:58;;;;;;;16.38;7.10;;;;;;;;;;5072132;28;20047;-89
2023/10/02 14:48:24;;;;;;;15.82;7.25;;;;;;;;;;5073993;28;20025;-88
2023/10/02 14:50:54;;;;;;;18.33;7.18;;;;;;;;;;5075772;28;20827;-88
2023/10/02 14:53:20;;;;;;;18.45;7.38;;;;;;;;;;5056139;28;20036;-88
2023/10/02 14:55:46;;;;;;;19.05;7.10;;;;;;;;;;5071023;28;20022;-88
2023/10/02 14:58:12;;;;;;;17.15;7.50;;;;;;;;;;5070891;28;20556;-88
2023/10/02 15:00:38;;;;;;;20.23;8.68;;;;;;;;;;5076235;28;20021;-88
2023/10/02 15:03:03;;;;;;;24.17;8.23;;;;;;;;;;5069933;28;20062;-88
2023/10/02 15:05:29;;;;;;;18.15;6.68;;;;;;;;;;5070140;28;20036;-88
2023/10/02 15:07:57;;;;;;;23.70;7.47;;;;;;;;;;5073456;28;20507;-87
2023/10/02 15:10:26;;;;;;;24.35;7.22;;;;;;;;;;5068212;28;20039;-88
2023/10/02 15:12:52;;;;;;;18.27;7.93;;;;;;;;;;5081623;28;20089;-87
2023/10/02 15:15:19;;;;;;;18.13;7.15;;;;;;;;;;5076188;28;20033;-88
2023/10/02 15:17:46;;;;;;;18.05;6.88;;;;;;;;;;5081411;28;20020;-90
2023/10/02 15:20:16;;;;;;;20.30;7.40;;;;;;;;;;5076376;28;20064;-89
2023/10/02 15:22:44;;;;;;;16.80;7.22;;;;;;;;;;5070799;28;20093;-88
2023/10/02 15:25:17;;;;;;;16.10;7.32;;;;;;;;;;5073987;28;20035;-88
2023/10/02 15:27:47;;;;;;;21.60;8.00;;;;;;;;;;5075894;28;20024;-87
2023/10/02 15:30:21;;;;;;;21.00;7.60;;;;;;;;;;5073596;28;20335;-87
2023/10/02 15:32:48;;;;;;;18.48;7.20;;;;;;;;;;5069860;28;20036;-87
2023/10/02 15:35:15;;;;;;;19.60;7.40;;;;;;;;;;5069926;28;20028;-87
2023/10/02 15:37:54;;;;;;;17.25;7.13;;;;;;;;;;5067845;28;20319;-87
2023/10/02 15:40:21;;;;;;;20.60;7.53;;;;;;;;;;5068568;28;20033;-88
2023/10/02 15:42:52;;;;;;;18.33;7.63;;;;;;;;;;5066993;28;20028;-89
2023/10/02 15:45:25;;;;;;;28.70;8.60;;;;;;;;;;5070776;28;20406;-87
2023/10/02 15:47:55;;;;;;;20.45;7.60;;;;;;;;;;5066558;28;20511;-87
2023/10/02 15:50:22;;;;;;;19.52;7.80;;;;;;;;;;5069325;28;20039;-87
2023/10/02 15:52:51;;;;;;;19.75;7.80;;;;;;;;;;5067426;28;20052;-87
2023/10/02 15:55:20;;;;;;;15.82;7.00;;;;;;;;;;5052766;28;20029;-87
2023/10/02 15:57:48;;;;;;;21.02;7.03;;;;;;;;;;5073136;28;20036;-88
2023/10/02 16:00:24;;;;;;;22.05;8.05;;;;;;;;;;5052560;28;20095;-87
2023/10/02 16:02:53;;;;;;;20.10;8.27;;;;;;;;;;5067180;28;20039;-87
2023/10/02 16:05:19;;;;;;;19.92;7.15;;;;;;;;;;5069835;28;20167;-87
2023/10/02 16:07:49;;;;;;;20.58;7.35;;;;;;;;;;5068330;28;20031;-87
2023/10/02 16:10:16;;;;;;;16.88;6.95;;;;;;;;;;5067800;28;20027;-88
2023/10/02 16:12:47;;;;;;;19.30;7.68;;;;;;;;;;5073261;28;20028;-88
2023/10/02 16:15:14;;;;;;;22.20;7.47;;;;;;;;;;5073418;28;20139;-87